sensor_id;sensor_type;location;lat;lon;timestamp;P1;durP1;ratioP1;P2;durP2;ratioP2
40745;SDS011;26454;51.164;4.488;2022-12-07T00:01:09;21.65;;;15.77;;
40745;SDS011;26454;51.164;4.488;2022-12-07T00:03:37;29.73;;;18.73;;
40745;SDS011;26454;51.164;4.488;2022-12-07T00:06:05;25.83;;;19.00;;
40745;SDS011;26454;51.164;4.488;2022-12-07T00:08:35;30.33;;;21.45;;
40745;SDS011;26454;51.164;4.488;2022-12-07T00:11:18;27.25;;;20.48;;
40745;SDS011;26454;51.164;4.488;2022-12-07T00:13:46;33.67;;;23.13;;
40745;SDS011;26454;51.164;4.488;2022-12-07T00:16:13;33.42;;;20.90;;
40745;SDS011;26454;51.164;4.488;2022-12-07T00:18:40;28.60;;;20.15;;
40745;SDS011;26454;51.164;4.488;2022-12-07T00:21:08;26.02;;;18.30;;
40745;SDS011;26454;51.164;4.488;2022-12-07T00:23:35;27.95;;;21.75;;
40745;SDS011;26454;51.164;4.488;2022-12-07T00:26:09;36.88;;;25.08;;
40745;SDS011;26454;51.164;4.488;2022-12-07T00:28:35;25.80;;;19.20;;
40745;SDS011;26454;51.164;4.488;2022-12-07T00:31:09;23.45;;;17.55;;
40745;SDS011;26454;51.164;4.488;2022-12-07T00:33:35;21.15;;;17.90;;
40745;SDS011;26454;51.164;4.488;2022-12-07T00:36:03;27.90;;;20.80;;
40745;SDS011;26454;51.164;4.488;2022-12-07T00:38:30;24.30;;;17.70;;
40745;SDS011;26454;51.164;4.488;2022-12-07T00:40:57;25.15;;;19.35;;
40745;SDS011;26454;51.164;4.488;2022-12-07T00:43:24;31.55;;;19.48;;
40745;SDS011;26454;51.164;4.488;2022-12-07T00:45:50;25.75;;;19.48;;
40745;SDS011;26454;51.164;4.488;2022-12-07T00:48:19;35.55;;;22.65;;
40745;SDS011;26454;51.164;4.488;2022-12-07T00:50:45;24.25;;;19.70;;
40745;SDS011;26454;51.164;4.488;2022-12-07T00:53:11;28.75;;;21.30;;
40745;SDS011;26454;51.164;4.488;2022-12-07T00:55:37;30.15;;;20.80;;
40745;SDS011;26454;51.164;4.488;2022-12-07T00:58:05;27.63;;;19.73;;
40745;SDS011;26454;51.164;4.488;2022-12-07T01:00:31;25.95;;;20.58;;
40745;SDS011;26454;51.164;4.488;2022-12-07T01:02:57;34.50;;;23.75;;
40745;SDS011;26454;51.164;4.488;2022-12-07T01:05:23;25.58;;;20.95;;
40745;SDS011;26454;51.164;4.488;2022-12-07T01:07:50;33.40;;;25.35;;
40745;SDS011;26454;51.164;4.488;2022-12-07T01:10:16;33.85;;;22.95;;
40745;SDS011;26454;51.164;4.488;2022-12-07T01:12:42;25.77;;;20.13;;
40745;SDS011;26454;51.164;4.488;2022-12-07T01:15:08;23.20;;;20.13;;
40745;SDS011;26454;51.164;4.488;2022-12-07T01:17:36;42.53;;;27.70;;
40745;SDS011;26454;51.164;4.488;2022-12-07T01:20:02;29.13;;;21.30;;
40745;SDS011;26454;51.164;4.488;2022-12-07T01:22:28;27.05;;;19.08;;
40745;SDS011;26454;51.164;4.488;2022-12-07T01:24:55;30.00;;;20.20;;
40745;SDS011;26454;51.164;4.488;2022-12-07T01:27:21;26.15;;;20.65;;
40745;SDS011;26454;51.164;4.488;2022-12-07T01:29:47;26.23;;;20.45;;
40745;SDS011;26454;51.164;4.488;2022-12-07T01:32:13;34.75;;;23.77;;
40745;SDS011;26454;51.164;4.488;2022-12-07T01:34:40;30.20;;;19.40;;
40745;SDS011;26454;51.164;4.488;2022-12-07T01:37:06;23.92;;;20.50;;
40745;SDS011;26454;51.164;4.488;2022-12-07T01:39:32;25.27;;;20.00;;
40745;SDS011;26454;51.164;4.488;2022-12-07T01:41:58;33.25;;;24.77;;
40745;SDS011;26454;51.164;4.488;2022-12-07T01:44:28;25.77;;;18.23;;
40745;SDS011;26454;51.164;4.488;2022-12-07T01:46:57;27.38;;;20.30;;
40745;SDS011;26454;51.164;4.488;2022-12-07T01:49:40;25.23;;;19.60;;
40745;SDS011;26454;51.164;4.488;2022-12-07T01:54:37;25.60;;;18.43;;
40745;SDS011;26454;51.164;4.488;2022-12-07T01:57:05;35.88;;;26.08;;
40745;SDS011;26454;51.164;4.488;2022-12-07T01:59:32;24.67;;;20.02;;
40745;SDS011;26454;51.164;4.488;2022-12-07T02:01:59;26.95;;;19.80;;
40745;SDS011;26454;51.164;4.488;2022-12-07T02:04:27;33.55;;;23.00;;
40745;SDS011;26454;51.164;4.488;2022-12-07T02:06:54;21.95;;;19.40;;
40745;SDS011;26454;51.164;4.488;2022-12-07T02:09:21;29.10;;;20.50;;
40745;SDS011;26454;51.164;4.488;2022-12-07T02:11:47;44.60;;;31.02;;
40745;SDS011;26454;51.164;4.488;2022-12-07T02:14:13;23.90;;;20.00;;
40745;SDS011;26454;51.164;4.488;2022-12-07T02:34:59;30.20;;;22.52;;
40745;SDS011;26454;51.164;4.488;2022-12-07T02:37:29;33.13;;;23.58;;
40745;SDS011;26454;51.164;4.488;2022-12-07T02:40:04;37.35;;;26.55;;
40745;SDS011;26454;51.164;4.488;2022-12-07T02:42:34;27.00;;;20.95;;
40745;SDS011;26454;51.164;4.488;2022-12-07T02:45:02;31.30;;;22.92;;
40745;SDS011;26454;51.164;4.488;2022-12-07T02:47:29;30.70;;;23.85;;
40745;SDS011;26454;51.164;4.488;2022-12-07T02:49:57;32.28;;;23.58;;
40745;SDS011;26454;51.164;4.488;2022-12-07T02:52:33;33.50;;;25.58;;
40745;SDS011;26454;51.164;4.488;2022-12-07T02:54:59;26.38;;;22.02;;
40745;SDS011;26454;51.164;4.488;2022-12-07T02:57:37;30.15;;;22.20;;
40745;SDS011;26454;51.164;4.488;2022-12-07T03:00:08;23.65;;;19.25;;
40745;SDS011;26454;51.164;4.488;2022-12-07T03:18:18;26.88;;;19.45;;
40745;SDS011;26454;51.164;4.488;2022-12-07T03:20:45;27.00;;;18.38;;
40745;SDS011;26454;51.164;4.488;2022-12-07T03:23:13;28.85;;;18.27;;
40745;SDS011;26454;51.164;4.488;2022-12-07T03:25:40;24.90;;;15.73;;
40745;SDS011;26454;51.164;4.488;2022-12-07T03:28:19;27.88;;;16.52;;
40745;SDS011;26454;51.164;4.488;2022-12-07T03:30:52;26.35;;;14.80;;
40745;SDS011;26454;51.164;4.488;2022-12-07T03:33:20;20.92;;;16.30;;
40745;SDS011;26454;51.164;4.488;2022-12-07T03:38:19;22.15;;;16.58;;
40745;SDS011;26454;51.164;4.488;2022-12-07T03:43:32;33.47;;;23.77;;
40745;SDS011;26454;51.164;4.488;2022-12-07T03:46:47;20.60;;;15.05;;
40745;SDS011;26454;51.164;4.488;2022-12-07T03:48:48;23.45;;;15.38;;
40745;SDS011;26454;51.164;4.488;2022-12-07T03:51:27;21.30;;;15.45;;
40745;SDS011;26454;51.164;4.488;2022-12-07T03:53:57;21.80;;;17.10;;
40745;SDS011;26454;51.164;4.488;2022-12-07T03:56:24;22.45;;;16.08;;
40745;SDS011;26454;51.164;4.488;2022-12-07T03:58:51;28.15;;;21.05;;
40745;SDS011;26454;51.164;4.488;2022-12-07T04:01:18;24.17;;;15.68;;
40745;SDS011;26454;51.164;4.488;2022-12-07T04:03:45;20.42;;;16.42;;
40745;SDS011;26454;51.164;4.488;2022-12-07T04:06:11;22.23;;;15.23;;
40745;SDS011;26454;51.164;4.488;2022-12-07T04:08:38;28.60;;;16.63;;
40745;SDS011;26454;51.164;4.488;2022-12-07T04:11:06;27.63;;;18.48;;
40745;SDS011;26454;51.164;4.488;2022-12-07T04:13:34;19.45;;;14.38;;
40745;SDS011;26454;51.164;4.488;2022-12-07T04:16:20;22.23;;;16.55;;
40745;SDS011;26454;51.164;4.488;2022-12-07T04:18:46;27.10;;;16.83;;
40745;SDS011;26454;51.164;4.488;2022-12-07T04:21:12;35.15;;;18.20;;
40745;SDS011;26454;51.164;4.488;2022-12-07T04:23:39;24.85;;;17.75;;
40745;SDS011;26454;51.164;4.488;2022-12-07T04:26:05;21.52;;;14.20;;
40745;SDS011;26454;51.164;4.488;2022-12-07T04:28:32;28.23;;;16.77;;
40745;SDS011;26454;51.164;4.488;2022-12-07T04:30:58;24.40;;;16.60;;
40745;SDS011;26454;51.164;4.488;2022-12-07T04:33:25;21.52;;;13.68;;
40745;SDS011;26454;51.164;4.488;2022-12-07T04:35:51;23.10;;;16.42;;
40745;SDS011;26454;51.164;4.488;2022-12-07T04:38:17;30.40;;;17.23;;
40745;SDS011;26454;51.164;4.488;2022-12-07T04:40:43;22.67;;;14.30;;
40745;SDS011;26454;51.164;4.488;2022-12-07T04:43:09;29.35;;;14.55;;
40745;SDS011;26454;51.164;4.488;2022-12-07T04:45:35;16.95;;;13.43;;
40745;SDS011;26454;51.164;4.488;2022-12-07T04:48:01;21.48;;;13.00;;
40745;SDS011;26454;51.164;4.488;2022-12-07T04:50:27;18.38;;;14.05;;
40745;SDS011;26454;51.164;4.488;2022-12-07T04:52:53;16.73;;;12.15;;
40745;SDS011;26454;51.164;4.488;2022-12-07T04:55:19;39.25;;;20.63;;
40745;SDS011;26454;51.164;4.488;2022-12-07T04:57:45;24.17;;;16.88;;
40745;SDS011;26454;51.164;4.488;2022-12-07T05:00:11;27.90;;;16.95;;
40745;SDS011;26454;51.164;4.488;2022-12-07T05:02:37;25.55;;;16.05;;
40745;SDS011;26454;51.164;4.488;2022-12-07T05:05:03;19.45;;;12.73;;
40745;SDS011;26454;51.164;4.488;2022-12-07T05:07:30;22.50;;;14.38;;
40745;SDS011;26454;51.164;4.488;2022-12-07T05:09:56;29.00;;;16.92;;
40745;SDS011;26454;51.164;4.488;2022-12-07T05:12:22;17.30;;;12.27;;
40745;SDS011;26454;51.164;4.488;2022-12-07T05:14:48;23.63;;;14.15;;
40745;SDS011;26454;51.164;4.488;2022-12-07T05:17:14;22.70;;;14.55;;
40745;SDS011;26454;51.164;4.488;2022-12-07T05:19:41;25.25;;;14.20;;
40745;SDS011;26454;51.164;4.488;2022-12-07T05:22:07;24.25;;;16.83;;
40745;SDS011;26454;51.164;4.488;2022-12-07T05:24:34;19.58;;;12.48;;
40745;SDS011;26454;51.164;4.488;2022-12-07T05:27:00;20.45;;;13.65;;
40745;SDS011;26454;51.164;4.488;2022-12-07T05:29:26;22.95;;;13.65;;
40745;SDS011;26454;51.164;4.488;2022-12-07T05:31:52;21.70;;;15.05;;
40745;SDS011;26454;51.164;4.488;2022-12-07T05:34:18;23.85;;;15.30;;
40745;SDS011;26454;51.164;4.488;2022-12-07T05:36:44;24.65;;;13.50;;
40745;SDS011;26454;51.164;4.488;2022-12-07T05:39:11;17.98;;;13.18;;
40745;SDS011;26454;51.164;4.488;2022-12-07T05:41:38;20.88;;;13.98;;
40745;SDS011;26454;51.164;4.488;2022-12-07T05:44:22;23.60;;;13.18;;
40745;SDS011;26454;51.164;4.488;2022-12-07T05:46:49;22.02;;;15.52;;
40745;SDS011;26454;51.164;4.488;2022-12-07T05:49:17;21.25;;;14.10;;
40745;SDS011;26454;51.164;4.488;2022-12-07T05:51:43;16.33;;;12.40;;
40745;SDS011;26454;51.164;4.488;2022-12-07T05:54:09;21.80;;;11.95;;
40745;SDS011;26454;51.164;4.488;2022-12-07T05:56:36;21.00;;;11.98;;
40745;SDS011;26454;51.164;4.488;2022-12-07T05:59:08;18.02;;;11.88;;
40745;SDS011;26454;51.164;4.488;2022-12-07T06:01:59;22.15;;;12.43;;
40745;SDS011;26454;51.164;4.488;2022-12-07T06:04:26;18.77;;;12.13;;
40745;SDS011;26454;51.164;4.488;2022-12-07T06:06:53;24.92;;;13.18;;
40745;SDS011;26454;51.164;4.488;2022-12-07T06:09:20;19.05;;;14.00;;
40745;SDS011;26454;51.164;4.488;2022-12-07T06:11:46;20.92;;;13.00;;
40745;SDS011;26454;51.164;4.488;2022-12-07T06:14:31;26.98;;;13.27;;
40745;SDS011;26454;51.164;4.488;2022-12-07T06:16:58;17.38;;;11.20;;
40745;SDS011;26454;51.164;4.488;2022-12-07T06:19:24;23.80;;;15.27;;
40745;SDS011;26454;51.164;4.488;2022-12-07T06:21:51;17.55;;;13.95;;
40745;SDS011;26454;51.164;4.488;2022-12-07T06:24:17;20.58;;;13.60;;
40745;SDS011;26454;51.164;4.488;2022-12-07T06:26:44;21.70;;;16.13;;
40745;SDS011;26454;51.164;4.488;2022-12-07T06:29:10;19.63;;;12.63;;
40745;SDS011;26454;51.164;4.488;2022-12-07T06:31:36;32.38;;;18.33;;
40745;SDS011;26454;51.164;4.488;2022-12-07T06:34:04;32.05;;;17.35;;
40745;SDS011;26454;51.164;4.488;2022-12-07T06:36:30;22.45;;;14.07;;
40745;SDS011;26454;51.164;4.488;2022-12-07T06:38:56;17.80;;;10.45;;
40745;SDS011;26454;51.164;4.488;2022-12-07T06:41:22;17.42;;;11.02;;
40745;SDS011;26454;51.164;4.488;2022-12-07T06:43:48;14.05;;;9.27;;
40745;SDS011;26454;51.164;4.488;2022-12-07T06:46:15;15.18;;;10.65;;
40745;SDS011;26454;51.164;4.488;2022-12-07T06:48:41;17.98;;;11.93;;
40745;SDS011;26454;51.164;4.488;2022-12-07T06:51:08;14.30;;;8.88;;
40745;SDS011;26454;51.164;4.488;2022-12-07T06:53:34;16.50;;;9.68;;
40745;SDS011;26454;51.164;4.488;2022-12-07T06:56:01;21.73;;;10.23;;
40745;SDS011;26454;51.164;4.488;2022-12-07T06:58:27;18.23;;;9.65;;
40745;SDS011;26454;51.164;4.488;2022-12-07T07:00:53;14.77;;;10.60;;
40745;SDS011;26454;51.164;4.488;2022-12-07T07:03:19;18.58;;;10.15;;
40745;SDS011;26454;51.164;4.488;2022-12-07T07:05:45;16.85;;;9.88;;
40745;SDS011;26454;51.164;4.488;2022-12-07T07:08:11;14.23;;;11.05;;
40745;SDS011;26454;51.164;4.488;2022-12-07T07:10:37;18.50;;;11.32;;
40745;SDS011;26454;51.164;4.488;2022-12-07T07:13:04;20.92;;;13.95;;
40745;SDS011;26454;51.164;4.488;2022-12-07T07:15:30;13.85;;;10.32;;
40745;SDS011;26454;51.164;4.488;2022-12-07T07:17:56;16.15;;;11.75;;
40745;SDS011;26454;51.164;4.488;2022-12-07T07:20:23;19.20;;;10.98;;
40745;SDS011;26454;51.164;4.488;2022-12-07T07:22:58;21.42;;;12.75;;
40745;SDS011;26454;51.164;4.488;2022-12-07T07:25:27;24.20;;;13.95;;
40745;SDS011;26454;51.164;4.488;2022-12-07T07:27:54;26.60;;;17.45;;
40745;SDS011;26454;51.164;4.488;2022-12-07T07:30:21;18.73;;;14.77;;
40745;SDS011;26454;51.164;4.488;2022-12-07T07:32:48;26.67;;;16.23;;
40745;SDS011;26454;51.164;4.488;2022-12-07T07:35:16;27.17;;;16.85;;
40745;SDS011;26454;51.164;4.488;2022-12-07T07:37:47;20.35;;;14.00;;
40745;SDS011;26454;51.164;4.488;2022-12-07T07:40:13;21.75;;;14.40;;
40745;SDS011;26454;51.164;4.488;2022-12-07T07:42:39;25.08;;;14.77;;
40745;SDS011;26454;51.164;4.488;2022-12-07T07:45:05;27.13;;;17.13;;
40745;SDS011;26454;51.164;4.488;2022-12-07T07:47:31;42.70;;;27.17;;
40745;SDS011;26454;51.164;4.488;2022-12-07T07:49:58;34.72;;;19.98;;
40745;SDS011;26454;51.164;4.488;2022-12-07T07:52:24;24.73;;;16.95;;
40745;SDS011;26454;51.164;4.488;2022-12-07T07:54:50;20.33;;;15.40;;
40745;SDS011;26454;51.164;4.488;2022-12-07T07:57:16;30.92;;;18.25;;
40745;SDS011;26454;51.164;4.488;2022-12-07T07:59:42;23.73;;;15.85;;
40745;SDS011;26454;51.164;4.488;2022-12-07T08:02:16;26.10;;;16.23;;
40745;SDS011;26454;51.164;4.488;2022-12-07T08:04:42;23.70;;;17.20;;
40745;SDS011;26454;51.164;4.488;2022-12-07T08:07:08;35.75;;;17.13;;
40745;SDS011;26454;51.164;4.488;2022-12-07T08:09:35;25.92;;;18.55;;
40745;SDS011;26454;51.164;4.488;2022-12-07T08:12:01;33.35;;;19.75;;
40745;SDS011;26454;51.164;4.488;2022-12-07T08:14:30;43.70;;;27.35;;
40745;SDS011;26454;51.164;4.488;2022-12-07T08:16:59;45.08;;;30.80;;
40745;SDS011;26454;51.164;4.488;2022-12-07T08:19:26;51.95;;;33.15;;
40745;SDS011;26454;51.164;4.488;2022-12-07T08:21:53;29.77;;;20.42;;
40745;SDS011;26454;51.164;4.488;2022-12-07T08:24:22;30.08;;;21.10;;
40745;SDS011;26454;51.164;4.488;2022-12-07T08:26:48;29.13;;;20.15;;
40745;SDS011;26454;51.164;4.488;2022-12-07T08:29:15;35.22;;;21.73;;
40745;SDS011;26454;51.164;4.488;2022-12-07T08:31:41;23.52;;;16.58;;
40745;SDS011;26454;51.164;4.488;2022-12-07T08:34:09;28.27;;;14.95;;
40745;SDS011;26454;51.164;4.488;2022-12-07T08:36:36;31.52;;;18.92;;
40745;SDS011;26454;51.164;4.488;2022-12-07T08:39:02;27.00;;;18.67;;
40745;SDS011;26454;51.164;4.488;2022-12-07T08:41:28;29.13;;;16.58;;
40745;SDS011;26454;51.164;4.488;2022-12-07T08:43:55;23.88;;;16.73;;
40745;SDS011;26454;51.164;4.488;2022-12-07T08:49:03;26.23;;;16.52;;
40745;SDS011;26454;51.164;4.488;2022-12-07T08:51:30;20.88;;;13.30;;
40745;SDS011;26454;51.164;4.488;2022-12-07T08:53:57;23.73;;;14.70;;
40745;SDS011;26454;51.164;4.488;2022-12-07T08:56:24;25.73;;;16.40;;
40745;SDS011;26454;51.164;4.488;2022-12-07T08:58:50;17.40;;;12.93;;
40745;SDS011;26454;51.164;4.488;2022-12-07T09:01:20;21.92;;;12.57;;
40745;SDS011;26454;51.164;4.488;2022-12-07T09:03:46;21.65;;;13.02;;
40745;SDS011;26454;51.164;4.488;2022-12-07T09:06:13;24.77;;;15.13;;
40745;SDS011;26454;51.164;4.488;2022-12-07T09:08:41;19.23;;;13.43;;
40745;SDS011;26454;51.164;4.488;2022-12-07T09:11:08;28.60;;;15.63;;
40745;SDS011;26454;51.164;4.488;2022-12-07T09:13:34;22.50;;;13.60;;
40745;SDS011;26454;51.164;4.488;2022-12-07T09:16:00;27.05;;;15.95;;
40745;SDS011;26454;51.164;4.488;2022-12-07T09:18:35;25.60;;;15.68;;
40745;SDS011;26454;51.164;4.488;2022-12-07T09:21:05;22.48;;;13.63;;
40745;SDS011;26454;51.164;4.488;2022-12-07T09:23:32;17.23;;;12.93;;
40745;SDS011;26454;51.164;4.488;2022-12-07T09:25:59;25.65;;;15.05;;
40745;SDS011;26454;51.164;4.488;2022-12-07T09:31:37;20.23;;;12.90;;
40745;SDS011;26454;51.164;4.488;2022-12-07T09:34:03;19.00;;;12.45;;
40745;SDS011;26454;51.164;4.488;2022-12-07T09:36:31;25.02;;;13.63;;
40745;SDS011;26454;51.164;4.488;2022-12-07T09:38:58;21.08;;;12.77;;
40745;SDS011;26454;51.164;4.488;2022-12-07T09:41:25;25.50;;;13.77;;
40745;SDS011;26454;51.164;4.488;2022-12-07T09:43:52;28.73;;;14.88;;
40745;SDS011;26454;51.164;4.488;2022-12-07T09:46:19;26.80;;;16.85;;
40745;SDS011;26454;51.164;4.488;2022-12-07T09:48:46;27.42;;;16.45;;
40745;SDS011;26454;51.164;4.488;2022-12-07T09:51:20;32.92;;;21.75;;
40745;SDS011;26454;51.164;4.488;2022-12-07T09:53:47;28.75;;;16.13;;
40745;SDS011;26454;51.164;4.488;2022-12-07T09:56:13;30.23;;;15.38;;
40745;SDS011;26454;51.164;4.488;2022-12-07T09:58:40;18.65;;;11.77;;
40745;SDS011;26454;51.164;4.488;2022-12-07T10:06:28;19.38;;;10.00;;
40745;SDS011;26454;51.164;4.488;2022-12-07T10:08:54;20.38;;;11.20;;
40745;SDS011;26454;51.164;4.488;2022-12-07T10:11:23;18.85;;;11.48;;
40745;SDS011;26454;51.164;4.488;2022-12-07T10:13:51;21.52;;;11.80;;
40745;SDS011;26454;51.164;4.488;2022-12-07T10:16:42;19.23;;;11.02;;
40745;SDS011;26454;51.164;4.488;2022-12-07T10:19:18;17.77;;;12.80;;
40745;SDS011;26454;51.164;4.488;2022-12-07T10:24:42;20.10;;;9.88;;
40745;SDS011;26454;51.164;4.488;2022-12-07T10:27:32;17.08;;;10.13;;
40745;SDS011;26454;51.164;4.488;2022-12-07T10:29:58;20.58;;;10.15;;
40745;SDS011;26454;51.164;4.488;2022-12-07T10:32:29;19.92;;;11.13;;
40745;SDS011;26454;51.164;4.488;2022-12-07T10:37:41;15.88;;;8.27;;
40745;SDS011;26454;51.164;4.488;2022-12-07T10:40:23;13.68;;;8.52;;
40745;SDS011;26454;51.164;4.488;2022-12-07T10:45:35;15.10;;;7.93;;
40745;SDS011;26454;51.164;4.488;2022-12-07T10:48:27;10.25;;;7.25;;
40745;SDS011;26454;51.164;4.488;2022-12-07T10:51:18;18.98;;;8.60;;
40745;SDS011;26454;51.164;4.488;2022-12-07T11:01:56;14.10;;;8.40;;
40745;SDS011;26454;51.164;4.488;2022-12-07T11:07:14;13.63;;;7.82;;
40745;SDS011;26454;51.164;4.488;2022-12-07T11:12:13;14.27;;;7.30;;
40745;SDS011;26454;51.164;4.488;2022-12-07T11:15:04;9.40;;;6.50;;
40745;SDS011;26454;51.164;4.488;2022-12-07T11:17:34;16.42;;;7.35;;
40745;SDS011;26454;51.164;4.488;2022-12-07T11:20:13;11.15;;;6.35;;
40745;SDS011;26454;51.164;4.488;2022-12-07T11:23:04;14.52;;;7.78;;
40745;SDS011;26454;51.164;4.488;2022-12-07T11:25:38;12.95;;;7.57;;
40745;SDS011;26454;51.164;4.488;2022-12-07T11:33:10;9.20;;;5.93;;
40745;SDS011;26454;51.164;4.488;2022-12-07T11:38:34;11.48;;;5.20;;
40745;SDS011;26454;51.164;4.488;2022-12-07T11:41:04;13.83;;;6.20;;
40745;SDS011;26454;51.164;4.488;2022-12-07T11:43:40;13.93;;;6.20;;
40745;SDS011;26454;51.164;4.488;2022-12-07T11:46:12;15.98;;;6.47;;
40745;SDS011;26454;51.164;4.488;2022-12-07T11:51:24;13.05;;;6.00;;
40745;SDS011;26454;51.164;4.488;2022-12-07T11:53:52;8.93;;;5.93;;
40745;SDS011;26454;51.164;4.488;2022-12-07T11:56:21;11.35;;;6.18;;
40745;SDS011;26454;51.164;4.488;2022-12-07T12:06:30;9.57;;;5.15;;
40745;SDS011;26454;51.164;4.488;2022-12-07T12:17:01;8.90;;;3.70;;
40745;SDS011;26454;51.164;4.488;2022-12-07T12:19:36;6.97;;;3.53;;
40745;SDS011;26454;51.164;4.488;2022-12-07T12:22:15;8.02;;;3.92;;
40745;SDS011;26454;51.164;4.488;2022-12-07T12:24:43;6.57;;;3.42;;
40745;SDS011;26454;51.164;4.488;2022-12-07T12:27:17;3.00;;;2.70;;
40745;SDS011;26454;51.164;4.488;2022-12-07T12:29:50;5.63;;;3.00;;
40745;SDS011;26454;51.164;4.488;2022-12-07T12:32:18;4.70;;;3.30;;
40745;SDS011;26454;51.164;4.488;2022-12-07T12:42:55;5.57;;;3.00;;
40745;SDS011;26454;51.164;4.488;2022-12-07T12:45:29;3.67;;;2.63;;
40745;SDS011;26454;51.164;4.488;2022-12-07T12:48:09;5.57;;;2.85;;
40745;SDS011;26454;51.164;4.488;2022-12-07T12:50:48;4.57;;;2.92;;
40745;SDS011;26454;51.164;4.488;2022-12-07T12:53:20;6.30;;;2.97;;
40745;SDS011;26454;51.164;4.488;2022-12-07T13:00:43;5.10;;;1.70;;
40745;SDS011;26454;51.164;4.488;2022-12-07T13:03:21;4.03;;;2.13;;
40745;SDS011;26454;51.164;4.488;2022-12-07T13:05:47;3.38;;;2.40;;
40745;SDS011;26454;51.164;4.488;2022-12-07T13:08:15;9.07;;;3.13;;
40745;SDS011;26454;51.164;4.488;2022-12-07T13:10:44;6.82;;;2.85;;
40745;SDS011;26454;51.164;4.488;2022-12-07T13:15:41;9.20;;;2.17;;
40745;SDS011;26454;51.164;4.488;2022-12-07T13:23:22;5.97;;;3.10;;
40745;SDS011;26454;51.164;4.488;2022-12-07T13:25:51;7.13;;;3.30;;
40745;SDS011;26454;51.164;4.488;2022-12-07T13:28:20;7.82;;;3.67;;
40745;SDS011;26454;51.164;4.488;2022-12-07T13:33:36;10.27;;;6.07;;
40745;SDS011;26454;51.164;4.488;2022-12-07T13:36:02;10.15;;;5.32;;
40745;SDS011;26454;51.164;4.488;2022-12-07T13:38:33;14.27;;;9.50;;
40745;SDS011;26454;51.164;4.488;2022-12-07T13:41:19;13.10;;;7.57;;
40745;SDS011;26454;51.164;4.488;2022-12-07T13:49:25;6.72;;;5.55;;
40745;SDS011;26454;51.164;4.488;2022-12-07T13:51:52;15.73;;;7.63;;
40745;SDS011;26454;51.164;4.488;2022-12-07T13:54:18;8.20;;;6.85;;
40745;SDS011;26454;51.164;4.488;2022-12-07T13:56:47;11.85;;;6.93;;
40745;SDS011;26454;51.164;4.488;2022-12-07T13:59:19;9.80;;;5.77;;
40745;SDS011;26454;51.164;4.488;2022-12-07T14:01:58;5.68;;;4.53;;
40745;SDS011;26454;51.164;4.488;2022-12-07T14:04:34;7.00;;;4.70;;
40745;SDS011;26454;51.164;4.488;2022-12-07T14:07:00;7.40;;;5.22;;
40745;SDS011;26454;51.164;4.488;2022-12-07T14:09:27;5.68;;;4.22;;
40745;SDS011;26454;51.164;4.488;2022-12-07T14:11:55;7.80;;;3.90;;
40745;SDS011;26454;51.164;4.488;2022-12-07T14:14:30;3.35;;;3.00;;
40745;SDS011;26454;51.164;4.488;2022-12-07T14:20:03;4.97;;;2.75;;
40745;SDS011;26454;51.164;4.488;2022-12-07T14:22:36;2.92;;;2.63;;
40745;SDS011;26454;51.164;4.488;2022-12-07T14:25:20;4.50;;;2.80;;
40745;SDS011;26454;51.164;4.488;2022-12-07T14:27:53;3.58;;;2.65;;
40745;SDS011;26454;51.164;4.488;2022-12-07T14:30:22;3.22;;;2.05;;
40745;SDS011;26454;51.164;4.488;2022-12-07T14:32:53;6.47;;;2.95;;
40745;SDS011;26454;51.164;4.488;2022-12-07T14:35:22;5.95;;;2.97;;
40745;SDS011;26454;51.164;4.488;2022-12-07T14:37:49;4.35;;;3.55;;
40745;SDS011;26454;51.164;4.488;2022-12-07T14:40:20;3.72;;;2.70;;
40745;SDS011;26454;51.164;4.488;2022-12-07T14:42:49;6.40;;;2.55;;
40745;SDS011;26454;51.164;4.488;2022-12-07T14:45:22;4.47;;;2.75;;
40745;SDS011;26454;51.164;4.488;2022-12-07T14:47:50;6.43;;;2.83;;
40745;SDS011;26454;51.164;4.488;2022-12-07T14:50:18;4.32;;;3.13;;
40745;SDS011;26454;51.164;4.488;2022-12-07T14:52:46;4.10;;;3.20;;
40745;SDS011;26454;51.164;4.488;2022-12-07T14:55:14;11.13;;;3.65;;
40745;SDS011;26454;51.164;4.488;2022-12-07T14:57:42;8.07;;;3.27;;
40745;SDS011;26454;51.164;4.488;2022-12-07T15:00:09;10.60;;;4.65;;
40745;SDS011;26454;51.164;4.488;2022-12-07T15:02:37;12.32;;;7.40;;
40745;SDS011;26454;51.164;4.488;2022-12-07T15:05:06;12.30;;;6.60;;
40745;SDS011;26454;51.164;4.488;2022-12-07T15:07:32;29.02;;;13.70;;
40745;SDS011;26454;51.164;4.488;2022-12-07T15:09:59;12.88;;;6.55;;
40745;SDS011;26454;51.164;4.488;2022-12-07T15:12:25;6.47;;;4.88;;
40745;SDS011;26454;51.164;4.488;2022-12-07T15:14:53;9.65;;;4.50;;
40745;SDS011;26454;51.164;4.488;2022-12-07T15:17:19;12.73;;;5.05;;
40745;SDS011;26454;51.164;4.488;2022-12-07T15:19:45;11.20;;;5.50;;
40745;SDS011;26454;51.164;4.488;2022-12-07T15:22:13;10.65;;;5.30;;
40745;SDS011;26454;51.164;4.488;2022-12-07T15:24:42;6.68;;;4.47;;
40745;SDS011;26454;51.164;4.488;2022-12-07T15:27:10;9.45;;;4.40;;
40745;SDS011;26454;51.164;4.488;2022-12-07T15:29:36;7.20;;;4.28;;
40745;SDS011;26454;51.164;4.488;2022-12-07T15:32:02;5.43;;;3.47;;
40745;SDS011;26454;51.164;4.488;2022-12-07T15:34:28;6.63;;;3.55;;
40745;SDS011;26454;51.164;4.488;2022-12-07T15:36:56;9.57;;;4.63;;
40745;SDS011;26454;51.164;4.488;2022-12-07T15:39:22;12.18;;;5.72;;
40745;SDS011;26454;51.164;4.488;2022-12-07T15:41:48;9.32;;;5.63;;
40745;SDS011;26454;51.164;4.488;2022-12-07T15:44:24;7.97;;;5.00;;
40745;SDS011;26454;51.164;4.488;2022-12-07T15:47:10;7.05;;;4.35;;
40745;SDS011;26454;51.164;4.488;2022-12-07T15:49:36;7.53;;;5.15;;
40745;SDS011;26454;51.164;4.488;2022-12-07T15:52:03;10.45;;;5.15;;
40745;SDS011;26454;51.164;4.488;2022-12-07T15:54:29;10.80;;;5.65;;
40745;SDS011;26454;51.164;4.488;2022-12-07T15:56:57;10.80;;;5.13;;
40745;SDS011;26454;51.164;4.488;2022-12-07T15:59:23;13.82;;;6.45;;
40745;SDS011;26454;51.164;4.488;2022-12-07T16:01:49;11.43;;;5.50;;
40745;SDS011;26454;51.164;4.488;2022-12-07T16:04:17;7.93;;;4.63;;
40745;SDS011;26454;51.164;4.488;2022-12-07T16:06:44;7.80;;;4.70;;
40745;SDS011;26454;51.164;4.488;2022-12-07T16:09:10;9.32;;;5.13;;
40745;SDS011;26454;51.164;4.488;2022-12-07T16:11:38;6.15;;;4.82;;
40745;SDS011;26454;51.164;4.488;2022-12-07T16:14:05;7.43;;;5.40;;
40745;SDS011;26454;51.164;4.488;2022-12-07T16:16:31;10.15;;;5.88;;
40745;SDS011;26454;51.164;4.488;2022-12-07T16:18:57;14.18;;;5.72;;
40745;SDS011;26454;51.164;4.488;2022-12-07T16:21:24;11.60;;;6.38;;
40745;SDS011;26454;51.164;4.488;2022-12-07T16:23:51;14.73;;;5.72;;
40745;SDS011;26454;51.164;4.488;2022-12-07T16:26:19;14.60;;;8.10;;
40745;SDS011;26454;51.164;4.488;2022-12-07T16:28:48;12.75;;;7.25;;
40745;SDS011;26454;51.164;4.488;2022-12-07T16:31:26;8.98;;;6.30;;
40745;SDS011;26454;51.164;4.488;2022-12-07T16:33:54;9.10;;;5.78;;
40745;SDS011;26454;51.164;4.488;2022-12-07T16:36:21;6.65;;;5.15;;
40745;SDS011;26454;51.164;4.488;2022-12-07T16:38:49;9.18;;;5.30;;
40745;SDS011;26454;51.164;4.488;2022-12-07T16:41:15;13.45;;;5.18;;
40745;SDS011;26454;51.164;4.488;2022-12-07T16:43:41;8.07;;;5.38;;
40745;SDS011;26454;51.164;4.488;2022-12-07T16:46:07;5.88;;;4.88;;
40745;SDS011;26454;51.164;4.488;2022-12-07T16:48:37;7.32;;;4.88;;
40745;SDS011;26454;51.164;4.488;2022-12-07T16:51:07;7.05;;;4.43;;